createdAt,value
2022-07-29T00:01:53.722Z,96954.88
2022-07-29T00:04:51.809Z,96951.34
2022-07-29T00:07:53.765Z,96945.09
2022-07-29T00:10:53.712Z,96942.69
2022-07-29T00:13:49.090Z,96943.50
2022-07-29T00:16:57.097Z,96934.28
2022-07-29T00:19:54.731Z,96936.44
2022-07-29T00:22:52.197Z,96926.72
2022-07-29T00:25:44.173Z,96930.50
2022-07-29T00:28:40.493Z,96921.59
2022-07-29T00:31:39.209Z,96927.84
2022-07-29T00:35:04.063Z,96922.16
2022-07-29T00:38:02.307Z,96920.53
2022-07-29T00:41:00.770Z,96932.78
2022-07-29T00:44:08.747Z,96931.69
2022-07-29T00:47:13.269Z,96924.91
2022-07-29T00:50:16.068Z,96930.34
2022-07-29T00:53:07.499Z,96929.00
2022-07-29T00:56:03.970Z,96927.94
2022-07-29T00:59:01.124Z,96936.91
2022-07-29T01:02:22.203Z,96939.38
2022-07-29T01:05:50.666Z,96930.94
2022-07-29T01:14:51.915Z,96907.59
2022-07-29T01:18:02.044Z,96903.81
2022-07-29T01:21:11.641Z,96909.25
2022-07-29T01:24:00.081Z,96903.56
2022-07-29T01:27:03.245Z,96906.56
2022-07-29T01:30:05.174Z,96900.88
2022-07-29T01:32:57.548Z,96894.13
2022-07-29T01:35:58.043Z,96890.34
2022-07-29T01:38:53.825Z,96896.28
2022-07-29T01:42:16.827Z,96900.13
2022-07-29T01:45:20.840Z,96890.59
2022-07-29T01:48:15.811Z,96888.44
2022-07-29T01:51:08.162Z,96885.47
2022-07-29T01:54:30.282Z,96884.13
2022-07-29T01:57:22.682Z,96885.50
2022-07-29T02:00:10.238Z,96882.53
2022-07-29T02:03:01.925Z,96888.25
2022-07-29T02:05:49.517Z,96890.13
2022-07-29T02:08:39.659Z,96877.09
2022-07-29T02:11:26.694Z,96869.75
2022-07-29T02:14:15.665Z,96875.19
2022-07-29T02:17:03.919Z,96864.88
2022-07-29T02:19:51.174Z,96866.25
2022-07-29T02:22:40.595Z,96863.28
2022-07-29T02:25:37.052Z,96852.97
2022-07-29T02:28:26.954Z,96855.97
2022-07-29T02:31:23.739Z,96845.41
2022-07-29T02:34:30.702Z,96850.56
2022-07-29T02:37:19.889Z,96857.06
2022-07-29T02:40:15.433Z,96857.88
2022-07-29T02:43:04.892Z,96857.38
2022-07-29T02:45:58.091Z,96856.00
2022-07-29T02:49:14.814Z,96853.28
2022-07-29T02:52:17.888Z,96857.66
2022-07-29T02:55:45.622Z,96857.91
2022-07-29T02:58:56.720Z,96856.03
2022-07-29T03:01:49.461Z,96851.69
2022-07-29T03:04:48.683Z,96856.31
2022-07-29T03:07:44.110Z,96859.28
2022-07-29T03:10:47.735Z,96869.59
2022-07-29T03:13:47.474Z,96862.81
2022-07-29T03:16:41.146Z,96863.91
2022-07-29T03:19:28.613Z,96862.84
2022-07-29T03:22:15.638Z,96853.59
2022-07-29T03:25:13.259Z,96866.06
2022-07-29T03:28:00.415Z,96872.56
2022-07-29T03:33:34.825Z,96876.06
2022-07-29T03:36:21.682Z,96878.25
2022-07-29T03:39:09.375Z,96867.94
2022-07-29T03:41:57.251Z,96872.00
2022-07-29T03:44:45.638Z,96868.78
2022-07-29T03:47:50.361Z,96877.16
2022-07-29T03:50:41.224Z,96872.56
2022-07-29T03:53:28.153Z,96879.31
2022-07-29T03:56:17.532Z,96882.56
2022-07-29T03:59:04.943Z,96884.75
2022-07-29T04:01:51.867Z,96877.16
2022-07-29T04:04:38.730Z,96877.44
2022-07-29T04:07:25.701Z,96880.69
2022-07-29T04:10:30.401Z,96878.50
2022-07-29T04:13:20.298Z,96899.38
2022-07-29T04:16:07.275Z,96896.09
2022-07-29T04:18:54.168Z,96893.94
2022-07-29T04:21:41.931Z,96898.81
2022-07-29T04:24:31.419Z,96919.94
2022-07-29T04:27:29.182Z,96911.53
2022-07-29T04:30:20.363Z,96905.81
2022-07-29T04:33:08.034Z,96915.03
2022-07-29T04:35:57.850Z,96918.31
2022-07-29T04:38:45.914Z,96914.22
2022-07-29T04:41:33.719Z,96917.19
2022-07-29T04:44:21.201Z,96919.91
2022-07-29T04:47:09.222Z,96921.81
2022-07-29T04:49:57.139Z,96922.06
2022-07-29T04:52:43.963Z,96920.44
2022-07-29T04:55:30.883Z,96920.72
2022-07-29T04:58:17.807Z,96920.13
2022-07-29T05:01:04.651Z,96918.81
2022-07-29T05:03:59.881Z,96921.50
2022-07-29T05:06:47.210Z,96918.22
2022-07-29T05:09:34.055Z,96911.41
2022-07-29T05:12:20.824Z,96909.53
2022-07-29T05:15:08.200Z,96914.41
2022-07-29T05:17:55.018Z,96915.50
2022-07-29T05:20:41.882Z,96911.94
2022-07-29T05:23:28.723Z,96916.84
2022-07-29T05:26:15.504Z,96924.97
2022-07-29T05:29:02.329Z,96919.78
2022-07-29T05:31:49.190Z,96927.91
2022-07-29T05:34:36.063Z,96933.31
2022-07-29T05:37:22.964Z,96941.72
2022-07-29T05:40:10.180Z,96943.34
2022-07-29T05:42:57.233Z,96940.09
2022-07-29T05:45:49.731Z,96936.59
2022-07-29T05:48:37.248Z,96937.66
2022-07-29T05:51:24.068Z,96938.72
2022-07-29T05:54:11.603Z,96930.59
2022-07-29T05:57:00.792Z,96934.41
2022-07-29T05:59:48.163Z,96941.97
2022-07-29T06:02:34.975Z,96934.38
2022-07-29T06:05:22.046Z,96942.75
2022-07-29T06:08:08.972Z,96933.81
2022-07-29T06:10:55.869Z,96930.56
2022-07-29T06:13:42.951Z,96922.72
2022-07-29T06:16:30.556Z,96930.84
2022-07-29T06:19:17.517Z,96935.69
2022-07-29T06:22:04.965Z,96939.47
2022-07-29T06:24:51.744Z,96941.38
2022-07-29T06:27:38.571Z,96932.44
2022-07-29T06:30:26.403Z,96929.75
2022-07-29T06:33:17.922Z,96923.75
2022-07-29T06:36:06.647Z,96925.66
2022-07-29T06:38:54.127Z,96930.25
2022-07-29T06:41:40.987Z,96929.44
2022-07-29T06:44:27.761Z,96929.69
2022-07-29T06:47:14.856Z,96935.38
2022-07-29T06:50:01.667Z,96933.75
2022-07-29T06:52:49.227Z,96944.59
2022-07-29T06:55:37.888Z,96942.69
2022-07-29T06:58:24.880Z,96951.06
2022-07-29T07:01:11.770Z,96968.09
2022-07-29T07:04:00.718Z,96977.28
2022-07-29T07:06:47.530Z,96981.63
2022-07-29T07:09:40.138Z,96990.81
2022-07-29T07:12:27.702Z,96987.31
2022-07-29T07:15:14.555Z,96988.13
2022-07-29T07:18:01.403Z,96976.50
2022-07-29T07:20:48.597Z,96982.72
2022-07-29T07:23:35.394Z,96981.91
2022-07-29T07:26:22.419Z,96984.34
2022-07-29T07:29:09.240Z,96985.41
2022-07-29T07:32:00.643Z,96978.91
2022-07-29T07:34:48.060Z,96980.53
2022-07-29T07:37:35.774Z,96981.34
2022-07-29T07:40:22.613Z,96978.41
2022-07-29T07:43:09.474Z,96980.03
2022-07-29T07:45:56.373Z,96979.50
2022-07-29T07:48:43.224Z,96972.47
2022-07-29T07:51:30.213Z,96970.63
2022-07-29T07:54:17.513Z,96972.84
2022-07-29T07:57:04.697Z,96974.50
2022-07-29T07:59:51.518Z,96975.06
2022-07-29T08:02:38.953Z,96972.13
2022-07-29T08:05:25.867Z,96976.50
2022-07-29T08:08:12.659Z,96968.69
2022-07-29T08:11:02.132Z,96972.78
2022-07-29T08:13:53.061Z,96973.91
2022-07-29T08:16:40.858Z,96974.19
2022-07-29T08:19:28.067Z,96969.06
2022-07-29T08:22:15.181Z,96972.03
2022-07-29T08:25:02.047Z,96976.66
2022-07-29T08:27:48.823Z,96985.06
2022-07-29T08:30:36.096Z,96985.34
2022-07-29T08:33:22.948Z,96975.06
2022-07-29T08:36:10.014Z,96973.44
2022-07-29T08:38:57.068Z,96979.13
2022-07-29T08:41:56.868Z,96977.75
2022-07-29T08:44:45.664Z,96976.72
2022-07-29T08:47:32.446Z,96968.88
2022-07-29T08:50:19.256Z,96970.50
2022-07-29T08:53:07.562Z,96975.13
2022-07-29T08:55:54.874Z,96978.38
2022-07-29T08:58:42.184Z,96972.41
2022-07-29T09:01:35.546Z,96968.88
2022-07-29T09:04:25.394Z,96980.28
2022-07-29T09:07:15.750Z,96976.75
2022-07-29T09:10:03.262Z,96972.41
2022-07-29T09:12:50.225Z,96964.00
2022-07-29T09:15:37.086Z,96971.31
2022-07-29T09:18:41.654Z,96963.16
2022-07-29T09:21:59.819Z,96958.28
2022-07-29T09:24:48.223Z,96955.84
2022-07-29T09:27:35.315Z,96962.88
2022-07-29T09:30:25.615Z,96955.81
2022-07-29T09:33:19.122Z,96967.19
2022-07-29T09:36:08.197Z,96966.97
2022-07-29T09:39:01.474Z,96959.34
2022-07-29T09:41:50.383Z,96946.56
2022-07-29T09:44:51.839Z,96944.09
2022-07-29T09:47:45.987Z,96942.97
2022-07-29T09:50:43.295Z,96941.00
2022-07-29T09:53:33.726Z,96934.44
2022-07-29T09:56:20.550Z,96937.09
2022-07-29T09:59:08.184Z,96940.31
2022-07-29T10:01:55.519Z,96936.19
2022-07-29T10:04:43.547Z,96924.72
2022-07-29T10:07:53.927Z,96925.19
2022-07-29T10:10:42.973Z,96928.94
2022-07-29T10:13:29.773Z,96926.44
2022-07-29T10:16:17.457Z,96922.28
2022-07-29T10:19:06.283Z,96919.50
2022-07-29T10:21:58.106Z,96926.00
2022-07-29T10:24:47.775Z,96918.56
2022-07-29T10:27:36.230Z,96916.56
2022-07-29T10:30:23.616Z,96911.84
2022-07-29T10:33:49.432Z,96900.00
2022-07-29T10:36:58.417Z,96895.22
2022-07-29T10:40:01.964Z,96887.47
2022-07-29T10:42:50.600Z,96893.91
2022-07-29T10:45:38.335Z,96894.38
2022-07-29T10:48:28.050Z,96896.44
2022-07-29T10:51:19.828Z,96903.47
2022-07-29T10:54:15.104Z,96902.00
2022-07-29T10:57:53.324Z,96895.06
2022-07-29T11:00:34.127Z,96892.78
2022-07-29T11:03:49.419Z,96899.00
2022-07-29T11:06:59.806Z,96889.66
2022-07-29T11:10:12.684Z,96885.75
2022-07-29T11:13:00.758Z,96882.94
2022-07-29T11:15:59.847Z,96885.06
2022-07-29T11:19:13.164Z,96882.25
2022-07-29T11:22:00.678Z,96881.38
2022-07-29T11:25:17.063Z,96877.97
2022-07-29T11:28:17.509Z,96876.25
2022-07-29T11:31:10.910Z,96866.38
2022-07-29T11:34:01.236Z,96867.91
2022-07-29T11:37:10.519Z,96871.88
2022-07-29T11:40:02.367Z,96873.44
2022-07-29T11:45:59.647Z,96872.16
2022-07-29T11:48:46.734Z,96864.97
2022-07-29T11:51:48.619Z,96872.25
2022-07-29T11:54:57.407Z,96869.47
2022-07-29T11:58:10.907Z,96862.78
2022-07-29T12:00:58.576Z,96873.91
2022-07-29T12:04:03.877Z,96867.84
2022-07-29T12:06:54.907Z,96864.50
2022-07-29T12:09:51.090Z,96870.97
2022-07-29T12:12:39.794Z,96872.31
2022-07-29T12:15:39.190Z,96883.44
2022-07-29T12:18:32.703Z,96869.19
2022-07-29T12:21:19.519Z,96862.78
2022-07-29T12:24:12.921Z,96853.19
2022-07-29T12:27:02.346Z,96856.97
2022-07-29T12:30:03.777Z,96848.97
2022-07-29T12:32:53.427Z,96853.00
2022-07-29T12:35:43.693Z,96858.97
2022-07-29T12:38:30.640Z,96860.59
2022-07-29T12:41:17.623Z,96866.84
2022-07-29T12:44:04.973Z,96865.75
2022-07-29T12:47:04.606Z,96866.25
2022-07-29T12:49:54.394Z,96866.56
2022-07-29T12:52:41.655Z,96873.66
2022-07-29T12:55:49.927Z,96872.84
2022-07-29T12:58:39.855Z,96866.56
2022-07-29T13:01:28.220Z,96872.03
2022-07-29T13:04:31.858Z,96868.78
2022-07-29T13:07:56.902Z,96866.84
2022-07-29T13:10:36.517Z,96863.13
2022-07-29T13:13:23.430Z,96863.44
2022-07-29T13:16:10.506Z,96848.13
2022-07-29T13:19:08.842Z,96842.50
2022-07-29T13:21:55.835Z,96838.69
2022-07-29T13:24:47.629Z,96835.47
2022-07-29T13:27:37.353Z,96831.13
2022-07-29T13:30:24.653Z,96829.00
2022-07-29T13:33:11.784Z,96838.59
2022-07-29T13:35:58.564Z,96831.00
2022-07-29T13:38:45.656Z,96830.00
2022-07-29T13:41:32.494Z,96839.31
2022-07-29T13:44:19.300Z,96830.13
2022-07-29T13:47:07.106Z,96831.53
2022-07-29T13:49:54.186Z,96832.44
2022-07-29T13:52:41.001Z,96835.47
2022-07-29T13:55:27.784Z,96845.38
2022-07-29T13:58:14.926Z,96850.34
2022-07-29T14:01:01.981Z,96845.47
2022-07-29T14:03:48.893Z,96837.06
2022-07-29T14:06:35.706Z,96844.25
2022-07-29T14:09:22.540Z,96835.53
2022-07-29T14:12:09.930Z,96837.25
2022-07-29T14:14:56.753Z,96839.78
2022-07-29T14:17:43.552Z,96836.84
2022-07-29T14:20:30.850Z,96832.78
2022-07-29T14:23:18.208Z,96827.09
2022-07-29T14:26:08.722Z,96834.25
2022-07-29T14:29:02.328Z,96828.38
2022-07-29T14:31:49.289Z,96825.44
2022-07-29T14:34:37.068Z,96825.22
2022-07-29T14:37:23.885Z,96817.94
2022-07-29T14:40:13.249Z,96829.97
2022-07-29T14:43:00.047Z,96820.47
2022-07-29T14:45:46.872Z,96828.44
2022-07-29T14:48:33.703Z,96826.00
2022-07-29T14:51:20.476Z,96828.53
2022-07-29T14:54:07.409Z,96837.78
2022-07-29T14:56:57.726Z,96831.03
2022-07-29T14:59:44.509Z,96828.59
2022-07-29T15:02:52.133Z,96831.63
2022-07-29T15:05:38.140Z,96825.97
2022-07-29T15:08:26.209Z,96828.16
2022-07-29T15:11:12.987Z,96818.66
2022-07-29T15:13:59.792Z,96818.94
2022-07-29T15:16:48.028Z,96805.63
2022-07-29T15:19:35.262Z,96809.75
2022-07-29T15:22:22.060Z,96808.94
2022-07-29T15:25:08.922Z,96811.94
2022-07-29T15:28:00.799Z,96811.94
2022-07-29T15:30:48.573Z,96820.44
2022-07-29T15:33:35.380Z,96805.19
2022-07-29T15:36:50.847Z,96812.56
2022-07-29T15:39:29.016Z,96800.31
2022-07-29T15:42:15.839Z,96808.75
2022-07-29T15:45:05.885Z,96813.72
2022-07-29T15:47:52.730Z,96812.09
2022-07-29T15:50:40.010Z,96816.72
2022-07-29T15:53:26.861Z,96812.38
2022-07-29T15:56:13.624Z,96818.16
2022-07-29T15:59:00.947Z,96822.78
2022-07-29T16:01:48.334Z,96825.78
2022-07-29T16:04:35.152Z,96826.91
2022-07-29T16:07:22.102Z,96833.47
2022-07-29T16:10:09.288Z,96825.56
2022-07-29T16:12:56.086Z,96832.13
2022-07-29T16:15:42.901Z,96825.34
2022-07-29T16:18:30.415Z,96819.09
2022-07-29T16:21:17.534Z,96825.66
2022-07-29T16:24:05.660Z,96836.34
2022-07-29T16:26:52.990Z,96849.16
2022-07-29T16:29:39.884Z,96847.53
2022-07-29T16:32:26.694Z,96858.72
2022-07-29T16:35:13.529Z,96866.38
2022-07-29T16:38:00.340Z,96868.59
2022-07-29T16:40:47.341Z,96867.56
2022-07-29T16:43:34.309Z,96873.28
2022-07-29T16:46:21.540Z,96874.72
2022-07-29T16:49:11.198Z,96883.47
2022-07-29T16:51:58.039Z,96871.22
2022-07-29T16:54:46.179Z,96879.41
2022-07-29T16:57:33.004Z,96875.66
2022-07-29T17:00:21.074Z,96883.25
2022-07-29T17:03:07.885Z,96878.53
2022-07-29T17:05:54.819Z,96892.59
2022-07-29T17:08:41.636Z,96902.34
2022-07-29T17:11:52.426Z,96900.97
2022-07-29T17:14:35.504Z,96895.50
2022-07-29T17:17:39.350Z,96889.75
2022-07-29T17:20:29.246Z,96885.91
2022-07-29T17:23:16.199Z,96887.25
2022-07-29T17:26:03.481Z,96876.88
2022-07-29T17:28:50.464Z,96883.13
2022-07-29T17:31:37.778Z,96894.84
2022-07-29T17:34:24.775Z,96889.66
2022-07-29T17:37:12.482Z,96887.25
2022-07-29T17:40:00.499Z,96886.72
2022-07-29T17:42:47.541Z,96882.94
2022-07-29T17:45:50.430Z,96893.34
2022-07-29T17:48:37.539Z,96897.78
2022-07-29T17:51:26.945Z,96895.09
2022-07-29T17:54:35.217Z,96900.63
2022-07-29T17:57:22.014Z,96911.28
2022-07-29T18:00:09.503Z,96907.81
2022-07-29T18:02:59.230Z,96924.22
2022-07-29T18:05:52.302Z,96941.50
2022-07-29T18:08:39.826Z,96946.44
2022-07-29T18:11:26.626Z,96947.88
2022-07-29T18:14:13.478Z,96947.41
2022-07-29T18:17:00.558Z,96962.47
2022-07-29T18:19:48.218Z,96968.22
2022-07-29T18:22:35.005Z,96973.75
2022-07-29T18:25:22.329Z,96967.00
2022-07-29T18:28:09.221Z,96969.75
2022-07-29T18:30:58.393Z,96970.06
2022-07-29T18:33:45.202Z,96960.34
2022-07-29T18:36:31.996Z,96960.63
2022-07-29T18:39:20.625Z,96962.56
2022-07-29T18:42:08.029Z,96952.81
2022-07-29T18:44:54.869Z,96954.75
2022-07-29T18:47:41.721Z,96958.63
2022-07-29T18:50:37.622Z,96961.94
2022-07-29T18:53:26.739Z,96965.78
2022-07-29T18:56:13.656Z,96967.72
2022-07-29T18:59:01.641Z,96964.19
2022-07-29T19:01:51.086Z,96959.59
2022-07-29T19:04:39.047Z,96964.53
2022-07-29T19:07:26.873Z,96974.91
2022-07-29T19:10:22.028Z,96970.00
2022-07-29T19:13:09.823Z,96983.31
2022-07-29T19:16:07.950Z,96988.50
2022-07-29T19:18:55.800Z,96994.19
2022-07-29T19:21:49.365Z,96992.31
2022-07-29T19:24:42.036Z,96987.97
2022-07-29T19:27:49.679Z,96995.91
2022-07-29T19:30:39.170Z,96991.56
2022-07-29T19:33:30.258Z,96985.88
2022-07-29T19:36:26.815Z,97004.63
2022-07-29T20:48:10.630Z,97057.88
2022-07-29T20:54:26.438Z,97052.97
2022-07-29T21:02:26.117Z,97059.19
2022-07-29T21:10:22.744Z,97071.41
2022-07-29T21:13:19.697Z,97064.53
2022-07-29T21:16:44.648Z,97065.91
2022-07-29T21:31:08.065Z,97066.44
2022-07-29T21:38:54.202Z,97079.16
2022-07-29T21:44:04.048Z,97074.78
2022-07-29T21:46:09.338Z,97076.41
2022-07-29T21:49:13.814Z,97077.19
2022-07-29T21:52:11.316Z,97076.09
2022-07-29T21:55:33.246Z,97064.44
2022-07-29T21:58:55.683Z,97064.44
2022-07-29T22:01:54.400Z,97058.69
2022-07-29T22:08:27.035Z,97055.97
2022-07-29T22:15:24.595Z,97051.09
2022-07-29T22:22:50.644Z,97064.88
2022-07-29T22:29:57.620Z,97062.66
2022-07-29T23:15:55.949Z,97035.84
2022-07-29T23:27:00.036Z,97023.84
2022-07-29T23:45:09.304Z,97021.31
2022-07-29T23:55:36.430Z,97034.78
